Time;durP1;ratioP1;P1;durP2;ratioP2;P2;SDS_P1;SDS_P2;PMS_P1;PMS_P2;Temp;Humidity;BMP_temperature;BMP_pressure;BME280_temperature;BME280_humidity;BME280_pressure;Samples;Min_cycle;Max_cycle;Signal;HPM_P1;HPM_P2
2023/06/03 00:00:22;;;;;;;5.72;2.65;;;;;;;15.80;33.33;101611.81;5037416;28;20624;-81
2023/06/03 00:02:52;;;;;;;5.30;2.50;;;;;;;15.79;33.23;101607.28;5041404;28;20078;-80
2023/06/03 00:05:21;;;;;;;6.20;2.97;;;;;;;15.77;33.02;101609.31;5064330;28;20075;-80
2023/06/03 00:07:51;;;;;;;6.38;3.05;;;;;;;15.78;33.03;101611.94;5060665;28;20033;-80
2023/06/03 00:10:18;;;;;;;6.13;2.72;;;;;;;15.74;33.01;101610.53;5036985;28;20076;-81
2023/06/03 00:12:46;;;;;;;6.45;3.28;;;;;;;15.71;33.50;101610.81;5041141;28;20076;-80
2023/06/03 00:15:14;;;;;;;5.30;2.72;;;;;;;15.70;33.12;101603.53;5053205;28;20059;-80
2023/06/03 00:17:42;;;;;;;5.13;2.97;;;;;;;15.68;33.50;101607.47;5058090;28;20041;-80
2023/06/03 00:20:11;;;;;;;5.35;3.03;;;;;;;15.66;33.02;101615.91;5044141;28;20155;-80
2023/06/03 00:22:40;;;;;;;6.10;2.97;;;;;;;15.64;33.61;101620.72;5063292;28;20043;-80
2023/06/03 00:25:11;;;;;;;7.18;3.00;;;;;;;15.64;33.54;101620.72;5043816;28;20476;-80
2023/06/03 00:27:40;;;;;;;5.82;3.13;;;;;;;15.60;33.07;101615.63;5043390;28;20040;-81
2023/06/03 00:30:08;;;;;;;7.55;2.78;;;;;;;15.60;33.63;101618.38;5055345;28;20065;-80
2023/06/03 00:32:36;;;;;;;4.35;2.70;;;;;;;15.56;33.45;101620.59;5049443;28;20075;-80
2023/06/03 00:35:05;;;;;;;6.78;3.08;;;;;;;15.55;33.47;101623.47;5056858;28;20033;-81
2023/06/03 00:37:33;;;;;;;4.05;2.55;;;;;;;15.52;33.35;101616.38;5041604;28;20530;-81
2023/06/03 00:40:02;;;;;;;4.40;2.30;;;;;;;15.51;33.50;101617.38;5052781;28;20056;-81
2023/06/03 00:42:31;;;;;;;7.28;2.35;;;;;;;15.50;33.39;101613.78;5051848;28;20130;-79
2023/06/03 00:44:59;;;;;;;6.00;2.75;;;;;;;15.47;33.56;101604.91;5042204;28;20483;-80
2023/06/03 00:47:28;;;;;;;4.40;2.50;;;;;;;15.45;33.56;101607.81;5043738;28;20074;-80
2023/06/03 00:49:57;;;;;;;4.57;2.40;;;;;;;15.44;33.73;101608.81;5038890;28;20087;-82
2023/06/03 00:52:27;;;;;;;5.25;2.70;;;;;;;15.42;33.93;101607.25;5039767;28;20056;-82
2023/06/03 00:54:55;;;;;;;6.00;2.45;;;;;;;15.38;33.76;101603.03;5065151;28;20068;-81
2023/06/03 00:57:24;;;;;;;4.47;2.58;;;;;;;15.36;33.82;101608.69;5046569;28;20111;-79
2023/06/03 00:59:53;;;;;;;4.93;2.80;;;;;;;15.33;34.29;101608.97;5042538;28;20091;-81
2023/06/03 01:02:23;;;;;;;7.22;2.88;;;;;;;15.28;34.32;101600.25;5040937;28;20057;-81
2023/06/03 01:04:55;;;;;;;5.43;2.60;;;;;;;15.28;34.33;101604.91;5038188;28;20083;-80
2023/06/03 01:07:31;;;;;;;4.97;2.42;;;;;;;15.24;34.50;101603.47;5035931;28;20083;-79
2023/06/03 01:10:10;;;;;;;5.45;2.42;;;;;;;15.22;34.63;101598.09;5034809;28;20044;-80
2023/06/03 01:12:49;;;;;;;6.32;2.80;;;;;;;15.16;34.81;101597.81;5056639;28;20440;-80
2023/06/03 01:15:23;;;;;;;5.78;2.70;;;;;;;15.14;34.52;101604.34;5053385;28;20064;-80
2023/06/03 01:17:52;;;;;;;5.40;2.80;;;;;;;15.11;34.72;101601.88;5036109;28;20044;-80
2023/06/03 01:20:26;;;;;;;5.68;2.60;;;;;;;15.08;34.42;101609.59;5034263;28;20057;-82
2023/06/03 01:23:00;;;;;;;5.30;2.67;;;;;;;15.06;34.79;101600.56;5056130;28;20037;-80
2023/06/03 01:25:29;;;;;;;;;;;;;;;14.73;35.71;101590.84;5041367;28;20111;-80
2023/06/03 01:27:57;;;;;;;3.58;2.10;;;;;;;14.92;34.80;101590.88;5061791;28;20019;-80
2023/06/03 01:30:25;;;;;;;4.28;2.58;;;;;;;14.93;34.77;101591.75;5033920;28;20084;-81
2023/06/03 01:32:54;;;;;;;5.35;2.80;;;;;;;14.93;35.01;101587.06;5040727;28;20041;-81
2023/06/03 01:35:23;;;;;;;7.55;2.70;;;;;;;14.89;34.71;101598.53;5057696;28;20065;-81
2023/06/03 01:37:52;;;;;;;5.82;2.88;;;;;;;14.85;34.98;101597.09;5059473;28;20049;-81
2023/06/03 01:40:20;;;;;;;6.20;3.17;;;;;;;14.83;34.91;101600.00;5034239;28;20106;-80
2023/06/03 01:42:50;;;;;;;5.72;3.00;;;;;;;14.81;35.06;101599.28;5034034;28;20045;-81
2023/06/03 01:45:18;;;;;;;5.35;2.90;;;;;;;14.77;34.85;101597.78;5042917;28;20052;-80
2023/06/03 01:47:46;;;;;;;4.35;2.60;;;;;;;14.76;34.97;101596.09;5055665;28;20041;-81
2023/06/03 01:50:16;;;;;;;5.30;2.85;;;;;;;14.74;35.23;101593.47;5051852;28;20205;-81
2023/06/03 01:52:45;;;;;;;5.25;2.72;;;;;;;14.69;35.30;101595.75;5056183;28;20060;-80
2023/06/03 01:55:13;;;;;;;4.80;3.25;;;;;;;14.68;35.46;101598.69;5049707;28;20048;-80
2023/06/03 01:57:41;;;;;;;5.95;3.05;;;;;;;14.66;35.52;101603.47;5047198;28;20071;-79
2023/06/03 02:00:11;;;;;;;6.03;3.20;;;;;;;14.65;35.64;101594.31;5060661;28;20045;-80
2023/06/03 02:02:42;;;;;;;4.65;2.90;;;;;;;14.62;35.53;101596.47;5060222;28;20059;-80
2023/06/03 02:05:11;;;;;;;6.10;3.05;;;;;;;14.59;35.59;101592.16;5049574;28;20044;-80
2023/06/03 02:07:38;;;;;;;4.85;2.80;;;;;;;14.59;35.68;101594.03;5044391;28;20094;-81
2023/06/03 02:10:08;;;;;;;5.63;2.90;;;;;;;14.60;35.28;101593.03;5048383;28;20041;-81
2023/06/03 02:12:36;;;;;;;5.35;2.90;;;;;;;14.59;35.16;101592.16;5053025;28;20149;-81
2023/06/03 02:15:14;;;;;;;5.22;3.17;;;;;;;14.60;35.25;101593.88;5052228;28;20041;-81
2023/06/03 02:17:43;;;;;;;5.55;2.85;;;;;;;14.58;35.04;101595.03;5042907;28;20051;-81
2023/06/03 02:20:12;;;;;;;8.43;3.17;;;;;;;14.58;35.05;101590.41;5033304;28;20034;-81
2023/06/03 02:22:39;;;;;;;5.53;3.15;;;;;;;14.57;35.27;101594.16;5040700;28;20048;-79
2023/06/03 02:25:08;;;;;;;5.20;3.03;;;;;;;14.59;35.23;101594.03;5037398;28;20033;-79
2023/06/03 02:27:36;;;;;;;5.93;3.15;;;;;;;14.56;35.48;101589.66;5039211;28;20058;-80
2023/06/03 02:30:07;;;;;;;4.63;2.80;;;;;;;14.60;35.38;101590.28;5064850;28;20559;-80
2023/06/03 02:32:37;;;;;;;5.47;2.80;;;;;;;14.60;35.36;101595.78;5042060;28;20071;-81
2023/06/03 02:35:05;;;;;;;4.95;2.72;;;;;;;14.59;35.01;101594.91;5040818;28;20070;-80
2023/06/03 02:37:33;;;;;;;5.32;3.03;;;;;;;14.59;35.28;101599.53;5041379;28;20123;-81
2023/06/03 02:40:01;;;;;;;5.70;2.70;;;;;;;14.58;35.37;101595.03;5046960;28;20048;-80
2023/06/03 02:42:30;;;;;;;6.35;3.20;;;;;;;14.58;34.97;101597.78;5059599;28;20052;-81
2023/06/03 02:44:58;;;;;;;4.43;2.70;;;;;;;14.58;34.98;101598.66;5029153;28;20052;-80
2023/06/03 02:47:26;;;;;;;3.97;2.75;;;;;;;14.58;34.83;101603.31;5034201;28;20671;-80
2023/06/03 02:49:56;;;;;;;6.63;2.97;;;;;;;14.59;34.76;101600.41;5032643;28;20075;-79
2023/06/03 02:52:24;;;;;;;7.00;2.92;;;;;;;14.57;35.04;101599.69;5044186;28;20045;-80
2023/06/03 02:54:52;;;;;;;4.35;3.00;;;;;;;14.56;34.68;101599.81;5032010;28;20037;-80
2023/06/03 02:57:22;;;;;;;5.78;2.78;;;;;;;14.57;35.17;101604.31;5052746;28;20079;-81
2023/06/03 02:59:50;;;;;;;4.22;2.75;;;;;;;14.56;34.85;101603.44;5030929;28;20041;-80
2023/06/03 03:02:20;;;;;;;4.45;2.83;;;;;;;14.57;34.96;101609.81;5037592;28;20075;-81
2023/06/03 03:04:48;;;;;;;5.38;2.80;;;;;;;14.54;34.88;101607.34;5065985;28;20124;-81
2023/06/03 03:07:20;;;;;;;5.13;3.00;;;;;;;14.54;34.99;101610.97;5042345;28;20036;-80
2023/06/03 03:09:48;;;;;;;3.88;2.40;;;;;;;14.50;34.93;101614.16;5058140;28;20119;-81
2023/06/03 03:12:16;;;;;;;6.70;2.92;;;;;;;14.49;34.92;101606.91;5039774;28;20079;-81
2023/06/03 03:14:45;;;;;;;4.57;2.53;;;;;;;14.50;34.71;101608.66;5034691;28;20044;-81
2023/06/03 03:17:13;;;;;;;4.78;3.05;;;;;;;14.49;34.61;101615.19;5038463;28;20048;-81
2023/06/03 03:19:41;;;;;;;4.65;2.95;;;;;;;14.47;34.14;101612.56;5045206;28;20131;-80
2023/06/03 03:22:10;;;;;;;6.63;3.00;;;;;;;14.43;34.54;101604.69;5042599;28;20515;-80
2023/06/03 03:24:42;;;;;;;5.50;2.90;;;;;;;14.45;34.57;101614.53;5039387;28;20107;-81
2023/06/03 03:27:11;;;;;;;4.57;2.78;;;;;;;14.43;34.19;101612.97;5039952;28;20056;-81
2023/06/03 03:29:44;;;;;;;5.25;2.63;;;;;;;14.43;34.32;101613.84;5035480;28;20132;-80
2023/06/03 03:32:13;;;;;;;6.55;2.50;;;;;;;14.38;34.43;101605.97;5038319;28;20075;-81
2023/06/03 03:34:49;;;;;;;4.13;2.70;;;;;;;14.37;34.48;101608.88;5031963;28;20040;-81
2023/06/03 03:37:17;;;;;;;5.60;2.55;;;;;;;14.35;34.13;101606.25;5038879;28;20107;-82
2023/06/03 03:39:48;;;;;;;4.53;2.75;;;;;;;14.37;34.04;101607.00;5043794;28;20037;-79
2023/06/03 03:42:16;;;;;;;5.13;2.72;;;;;;;14.35;34.44;101609.00;5042629;28;20049;-79
2023/06/03 03:44:44;;;;;;;4.55;2.63;;;;;;;14.34;33.88;101606.41;5053095;28;20044;-81
2023/06/03 03:47:21;;;;;;;5.57;2.72;;;;;;;14.35;33.84;101606.25;5065852;28;20544;-81
2023/06/03 03:49:50;;;;;;;4.32;2.88;;;;;;;14.32;33.81;101612.06;5029882;28;20046;-81
2023/06/03 03:52:29;;;;;;;5.60;2.75;;;;;;;14.34;33.61;101612.78;5039758;28;20586;-82
2023/06/03 03:55:01;;;;;;;5.60;2.90;;;;;;;14.32;34.05;101611.19;5054455;28;20072;-81
2023/06/03 03:57:31;;;;;;;5.18;2.72;;;;;;;14.28;33.87;101613.34;5047963;28;20064;-81
2023/06/03 04:00:00;;;;;;;4.25;2.15;;;;;;;14.28;33.52;101616.09;5042864;28;20044;-80
2023/06/03 04:02:31;;;;;;;4.97;2.53;;;;;;;14.26;34.01;101603.50;5057192;28;20525;-81
2023/06/03 04:05:00;;;;;;;4.05;2.50;;;;;;;14.28;33.38;101613.34;5057171;28;20041;-81
2023/06/03 04:07:28;;;;;;;4.45;2.42;;;;;;;14.26;33.65;101614.50;5040407;28;20041;-81
2023/06/03 04:09:56;;;;;;;5.63;2.58;;;;;;;14.25;33.47;101615.50;5069423;28;20123;-82
2023/06/03 04:12:32;;;;;;;6.32;2.65;;;;;;;14.26;33.12;101620.88;5036837;28;20068;-81
2023/06/03 04:15:02;;;;;;;3.42;2.30;;;;;;;14.24;33.59;101619.28;5044278;28;20049;-80
2023/06/03 04:17:37;;;;;;;4.10;2.30;;;;;;;14.27;33.34;101624.50;5034211;28;20141;-81
2023/06/03 04:20:17;;;;;;;4.45;2.30;;;;;;;14.25;33.08;101619.13;5045515;28;20085;-81
2023/06/03 04:22:45;;;;;;;4.10;2.33;;;;;;;14.23;33.40;101626.66;5060791;28;20037;-81
2023/06/03 04:25:15;;;;;;;3.85;2.35;;;;;;;14.24;33.33;101627.53;5043064;28;20091;-81
2023/06/03 04:27:50;;;;;;;6.70;2.50;;;;;;;14.24;33.25;101625.66;5055552;28;20056;-81
2023/06/03 04:30:19;;;;;;;4.18;2.28;;;;;;;14.25;32.95;101632.03;5044615;28;20427;-81
2023/06/03 04:32:48;;;;;;;3.95;2.20;;;;;;;14.23;32.68;101631.28;5044846;28;20041;-81
2023/06/03 04:35:18;;;;;;;4.28;2.28;;;;;;;14.24;32.65;101624.78;5047034;28;20044;-81
2023/06/03 04:37:47;;;;;;;3.67;2.05;;;;;;;14.24;32.84;101625.66;5039929;28;20045;-80
2023/06/03 04:40:18;;;;;;;4.78;2.47;;;;;;;14.25;32.31;101623.78;5041357;28;20063;-80
2023/06/03 04:42:47;;;;;;;4.05;2.00;;;;;;;14.23;32.64;101623.91;5036512;28;20120;-81
2023/06/03 04:45:21;;;;;;;3.13;1.95;;;;;;;14.25;32.49;101629.28;5030780;28;20056;-81
2023/06/03 04:47:49;;;;;;;;;;;;;;;13.95;32.77;101619.16;5047224;28;20040;-81
2023/06/03 04:50:20;;;;;;;4.00;1.90;;;;;;;14.18;32.34;101617.97;5063211;28;19987;-80
2023/06/03 04:52:49;;;;;;;3.47;1.77;;;;;;;14.19;32.60;101616.91;5038344;28;20321;-80
2023/06/03 04:55:18;;;;;;;4.07;2.30;;;;;;;14.23;32.00;101618.41;5042623;28;20865;-80
2023/06/03 04:57:50;;;;;;;3.00;1.60;;;;;;;14.24;32.08;101625.66;5040656;28;20102;-81
2023/06/03 05:00:21;;;;;;;3.55;1.90;;;;;;;14.27;32.51;101628.09;5027819;28;20155;-80
2023/06/03 05:02:56;;;;;;;3.08;1.73;;;;;;;14.27;32.57;101625.34;5037500;28;20045;-80
2023/06/03 05:05:28;;;;;;;4.82;1.88;;;;;;;14.31;32.68;101631.47;5035094;28;20106;-81
2023/06/03 05:07:57;;;;;;;3.35;1.83;;;;;;;14.40;32.33;101616.84;5054322;28;20860;-80
2023/06/03 05:10:25;;;;;;;3.13;2.00;;;;;;;14.51;32.70;101624.19;5041139;28;20053;-81
2023/06/03 05:12:54;;;;;;;3.28;1.88;;;;;;;14.62;32.51;101624.91;5038605;28;20127;-81
2023/06/03 05:15:23;;;;;;;3.67;1.83;;;;;;;14.79;32.54;101625.22;5043861;28;20438;-81
2023/06/03 05:17:52;;;;;;;3.03;1.42;;;;;;;14.94;32.00;101624.66;5045819;28;20420;-81
2023/06/03 05:20:20;;;;;;;4.18;1.70;;;;;;;15.14;31.89;101625.53;5037968;28;20055;-80
2023/06/03 05:22:48;;;;;;;4.85;1.88;;;;;;;15.34;31.79;101630.03;5049002;28;20048;-80
2023/06/03 05:25:16;;;;;;;4.43;1.60;;;;;;;15.55;32.00;101629.88;5042908;28;20075;-81
2023/06/03 05:27:44;;;;;;;2.97;1.67;;;;;;;15.77;31.73;101623.13;5059121;28;20045;-79
2023/06/03 05:30:30;;;;;;;3.72;2.00;;;;;;;16.01;30.79;101619.84;5049481;28;20048;-81
2023/06/03 05:32:58;;;;;;;4.85;2.03;;;;;;;16.19;31.10;101615.28;5046304;28;20086;-81
2023/06/03 05:35:26;;;;;;;6.00;2.05;;;;;;;16.38;30.35;101604.16;5062668;28;20049;-81
2023/06/03 05:37:54;;;;;;;3.83;1.63;;;;;;;16.56;30.03;101620.78;5041812;28;20673;-80
2023/06/03 05:40:24;;;;;;;4.35;1.75;;;;;;;16.74;29.79;101613.38;5057675;28;20053;-78
2023/06/03 05:42:55;;;;;;;3.47;1.60;;;;;;;16.88;30.09;101615.59;5039932;28;20078;-80
2023/06/03 05:45:23;;;;;;;2.63;1.50;;;;;;;17.01;29.40;101624.38;5052802;28;20621;-79
2023/06/03 05:47:53;;;;;;;2.92;1.60;;;;;;;17.19;28.86;101618.84;5038713;28;20373;-80
2023/06/03 05:50:21;;;;;;;2.92;1.52;;;;;;;17.30;29.36;101617.75;5037352;28;20067;-81
2023/06/03 05:52:49;;;;;;;3.42;1.90;;;;;;;17.42;29.05;101619.22;5057559;28;20043;-82
2023/06/03 05:55:17;;;;;;;2.92;1.70;;;;;;;17.53;28.65;101616.19;5046061;28;20053;-80
2023/06/03 05:57:45;;;;;;;2.97;1.90;;;;;;;17.63;28.34;101616.09;5040495;28;20040;-82
2023/06/03 06:00:14;;;;;;;3.67;1.80;;;;;;;17.76;28.25;101622.09;5057066;28;20052;-82
2023/06/03 06:02:42;;;;;;;3.30;1.45;;;;;;;17.87;28.34;101616.28;5059524;28;20052;-82
2023/06/03 06:05:15;;;;;;;3.88;1.63;;;;;;;17.98;28.13;101617.88;5056076;28;20041;-81
2023/06/03 06:07:43;;;;;;;3.55;1.70;;;;;;;18.08;27.55;101616.75;5032795;28;20037;-83
2023/06/03 06:10:11;;;;;;;3.22;1.63;;;;;;;18.18;27.87;101611.09;5031363;28;20041;-81
2023/06/03 06:12:40;;;;;;;4.13;1.73;;;;;;;18.25;27.16;101609.38;5066757;28;20064;-80
2023/06/03 06:15:10;;;;;;;2.58;1.50;;;;;;;18.37;27.49;101612.72;5035413;28;20041;-81
2023/06/03 06:17:40;;;;;;;4.03;1.80;;;;;;;18.44;27.37;101608.25;5048133;28;20037;-81
2023/06/03 06:20:10;;;;;;;2.78;1.50;;;;;;;18.54;27.10;101617.34;5059748;28;20527;-81
2023/06/03 06:22:40;;;;;;;3.28;1.67;;;;;;;18.63;26.89;101612.69;5047251;28;20445;-82
2023/06/03 06:25:10;;;;;;;3.53;1.55;;;;;;;18.72;26.97;101623.59;5043816;28;20045;-81
2023/06/03 06:27:38;;;;;;;3.47;1.50;;;;;;;18.81;26.75;101618.94;5046944;28;20091;-81
2023/06/03 06:30:08;;;;;;;2.60;1.20;;;;;;;18.92;26.61;101615.00;5044196;28;20527;-82
2023/06/03 06:32:47;;;;;;;5.22;1.60;;;;;;;19.00;25.66;101615.88;5045369;28;20060;-81
2023/06/03 06:35:17;;;;;;;3.50;1.67;;;;;;;19.05;26.32;101620.91;5059796;28;20129;-81
2023/06/03 06:37:48;;;;;;;3.05;1.50;;;;;;;19.13;25.85;101619.00;5040069;28;20131;-79
2023/06/03 06:40:19;;;;;;;4.57;1.50;;;;;;;19.16;25.71;101621.44;5060015;28;20048;-80
2023/06/03 06:42:48;;;;;;;3.13;1.30;;;;;;;19.23;26.12;101621.63;5055228;28;20094;-78
2023/06/03 06:45:27;;;;;;;3.03;1.60;;;;;;;19.28;25.81;101627.56;5040436;28;20140;-79
2023/06/03 06:48:04;;;;;;;2.72;1.50;;;;;;;19.37;24.83;101625.66;5038644;28;20049;-81
2023/06/03 06:50:47;;;;;;;3.00;1.40;;;;;;;19.42;24.40;101626.84;5059565;28;20068;-79
2023/06/03 06:53:19;;;;;;;3.63;1.58;;;;;;;19.45;24.81;101628.44;5035728;28;20564;-77
2023/06/03 06:55:50;;;;;;;2.97;1.70;;;;;;;19.44;25.23;101626.69;5033858;28;20090;-78
2023/06/03 06:58:25;;;;;;;5.70;1.70;;;;;;;19.50;25.35;101623.22;5036937;28;20045;-79
2023/06/03 07:00:54;;;;;;;3.65;1.63;;;;;;;19.53;25.45;101628.41;5040180;28;20049;-78
2023/06/03 07:03:22;;;;;;;3.00;1.27;;;;;;;19.54;25.28;101628.22;5041350;28;20051;-77
2023/06/03 07:05:53;;;;;;;4.57;1.40;;;;;;;19.58;25.42;101623.19;5056774;28;20642;-77
2023/06/03 07:08:27;;;;;;;3.78;1.52;;;;;;;19.63;24.98;101631.84;5052704;28;20068;-77
2023/06/03 07:10:58;;;;;;;2.72;1.52;;;;;;;19.65;24.88;101627.00;5041559;28;20416;-78
2023/06/03 07:13:27;;;;;;;5.43;1.88;;;;;;;19.69;24.76;101633.09;5039046;28;20049;-78
2023/06/03 07:15:56;;;;;;;3.95;1.83;;;;;;;19.71;24.61;101631.00;5042207;28;20075;-79
2023/06/03 07:18:27;;;;;;;2.97;1.75;;;;;;;19.74;24.63;101639.84;5046753;28;20045;-78
2023/06/03 07:20:57;;;;;;;2.88;1.40;;;;;;;19.74;24.65;101634.28;5043791;28;20052;-79
2023/06/03 07:23:27;;;;;;;4.03;1.67;;;;;;;19.82;24.31;101631.50;5044649;28;20052;-79
2023/06/03 07:25:57;;;;;;;2.63;1.40;;;;;;;19.80;24.48;101630.78;5064209;28;20053;-79
2023/06/03 07:28:30;;;;;;;3.10;1.70;;;;;;;19.86;24.22;101629.25;5059926;28;20505;-79
2023/06/03 07:31:06;;;;;;;2.75;1.52;;;;;;;19.89;23.74;101631.66;5037298;28;20051;-79
2023/06/03 07:33:41;;;;;;;2.90;1.73;;;;;;;19.89;24.12;101631.66;5054038;28;20157;-79
2023/06/03 07:36:09;;;;;;;4.47;1.70;;;;;;;19.89;24.15;101634.44;5041213;28;20079;-79
2023/06/03 07:39:00;;;;;;;3.10;1.63;;;;;;;19.95;24.02;101628.22;5038101;28;20485;-80
2023/06/03 07:41:37;;;;;;;3.20;1.50;;;;;;;19.96;23.48;101628.00;5033123;28;20049;-80
2023/06/03 07:44:08;;;;;;;3.63;1.27;;;;;;;19.99;23.92;101624.03;5035762;28;20230;-78
2023/06/03 07:46:42;;;;;;;5.07;1.42;;;;;;;20.07;23.01;101625.91;5054078;28;20821;-78
2023/06/03 07:49:12;;;;;;;5.50;1.50;;;;;;;20.08;23.65;101619.31;5060182;28;20240;-78
2023/06/03 07:51:42;;;;;;;4.35;1.75;;;;;;;20.09;23.98;101624.69;5052840;28;20518;-78
2023/06/03 07:54:12;;;;;;;2.80;1.50;;;;;;;20.09;23.58;101627.47;5036644;28;20135;-78
2023/06/03 07:56:41;;;;;;;4.07;1.60;;;;;;;20.14;23.93;101624.16;5047578;28;20858;-78
2023/06/03 07:59:10;;;;;;;2.97;1.50;;;;;;;20.17;24.39;101629.34;5036590;28;20049;-78
2023/06/03 08:01:38;;;;;;;3.15;1.70;;;;;;;20.18;23.98;101625.53;5036958;28;20132;-77
2023/06/03 08:04:26;;;;;;;4.13;1.70;;;;;;;20.23;23.44;101631.41;5052838;28;20037;-77
2023/06/03 08:06:55;;;;;;;2.95;1.42;;;;;;;20.22;24.14;101629.69;5045660;28;20072;-78
2023/06/03 08:09:28;;;;;;;4.88;1.50;;;;;;;20.30;23.81;101624.94;5061661;28;20048;-77
2023/06/03 08:11:56;;;;;;;;;;;;;;;20.01;23.95;101625.59;5048160;28;20474;-78
2023/06/03 08:14:25;;;;;;;2.78;1.65;;;;;;;20.32;24.12;101619.22;5045431;28;19925;-79
2023/06/03 08:16:54;;;;;;;3.72;1.60;;;;;;;20.39;23.91;101623.88;5052047;28;20527;-79
2023/06/03 08:19:22;;;;;;;2.63;1.50;;;;;;;20.44;24.01;101628.91;5061814;28;20070;-78
2023/06/03 08:21:51;;;;;;;3.10;1.42;;;;;;;20.49;23.87;101622.78;5066082;28;20442;-79
2023/06/03 08:24:19;;;;;;;3.22;1.50;;;;;;;20.52;23.72;101622.44;5059832;28;20048;-78
2023/06/03 08:26:48;;;;;;;3.90;1.63;;;;;;;20.55;23.37;101622.06;5049905;28;20080;-79
2023/06/03 08:29:18;;;;;;;3.03;1.60;;;;;;;20.56;23.71;101619.09;5044796;28;20041;-78
2023/06/03 08:31:46;;;;;;;3.28;1.67;;;;;;;20.57;23.86;101612.50;5055353;28;20049;-80
2023/06/03 08:34:14;;;;;;;6.28;1.60;;;;;;;20.62;23.80;101618.41;5067800;28;20036;-79
2023/06/03 08:36:42;;;;;;;3.28;1.30;;;;;;;20.66;23.92;101613.34;5068105;28;20090;-78
2023/06/03 08:39:10;;;;;;;4.60;1.65;;;;;;;20.69;23.50;101613.00;5059881;28;20041;-84
2023/06/03 08:41:39;;;;;;;3.13;1.27;;;;;;;20.75;23.69;101613.13;5048561;28;20408;-80
2023/06/03 08:44:19;;;;;;;3.97;1.75;;;;;;;20.81;23.19;101605.09;5071436;28;20158;-81
2023/06/03 08:46:59;;;;;;;4.00;1.50;;;;;;;20.84;23.01;101600.03;5044068;28;20067;-78
2023/06/03 08:49:37;;;;;;;3.20;1.40;;;;;;;20.86;22.69;101608.19;5072769;28;20041;-78
2023/06/03 08:52:08;;;;;;;3.65;1.60;;;;;;;20.85;23.20;101601.78;5053679;28;20128;-79
2023/06/03 08:54:38;;;;;;;3.55;1.50;;;;;;;20.89;22.96;101599.47;5044384;28;20048;-79
2023/06/03 08:57:11;;;;;;;3.30;1.58;;;;;;;20.91;23.29;101605.72;5062744;28;20052;-78
2023/06/03 08:59:42;;;;;;;3.13;1.30;;;;;;;20.95;22.85;101602.38;5038694;28;20062;-78
2023/06/03 09:02:12;;;;;;;4.00;1.38;;;;;;;20.92;22.93;101599.97;5052484;28;20057;-79
2023/06/03 09:04:41;;;;;;;3.10;1.80;;;;;;;20.94;23.07;101609.03;5064995;28;20037;-78
2023/06/03 09:07:10;;;;;;;6.15;1.60;;;;;;;20.97;22.57;101603.06;5039768;28;20102;-78
2023/06/03 09:09:40;;;;;;;2.58;1.30;;;;;;;21.01;22.87;101610.00;5053759;28;20067;-79
2023/06/03 09:12:09;;;;;;;2.88;1.40;;;;;;;21.02;22.58;101600.59;5042293;28;20053;-80
2023/06/03 09:14:39;;;;;;;2.47;1.40;;;;;;;21.08;22.81;101615.69;5065271;28;20119;-81
2023/06/03 09:17:09;;;;;;;2.83;1.30;;;;;;;21.11;22.62;101612.50;5050792;28;20045;-82
2023/06/03 09:19:37;;;;;;;3.03;1.33;;;;;;;21.12;22.86;101609.56;5069801;28;20060;-79
2023/06/03 09:22:06;;;;;;;2.78;1.50;;;;;;;21.14;22.30;101626.06;5059853;28;20109;-77
2023/06/03 09:24:34;;;;;;;2.47;1.40;;;;;;;21.15;22.27;101623.13;5067922;28;20168;-78
2023/06/03 09:27:02;;;;;;;2.33;1.35;;;;;;;21.18;22.21;101621.88;5040446;28;20527;-78
2023/06/03 09:29:30;;;;;;;2.78;1.42;;;;;;;21.20;22.00;101618.88;5043408;28;20156;-79
2023/06/03 09:31:58;;;;;;;2.88;1.30;;;;;;;21.22;22.31;101614.88;5064419;28;20067;-79
2023/06/03 09:34:29;;;;;;;4.05;1.30;;;;;;;21.29;21.77;101624.25;5064285;28;20049;-79
2023/06/03 09:36:57;;;;;;;3.60;1.20;;;;;;;21.32;22.43;101618.31;5072495;28;20576;-78
2023/06/03 09:39:33;;;;;;;3.33;1.30;;;;;;;21.41;22.03;101621.91;5047822;28;20134;-80
2023/06/03 09:42:01;;;;;;;3.60;1.27;;;;;;;21.44;22.16;101621.50;5045228;28;20057;-80
2023/06/03 09:44:39;;;;;;;4.57;1.00;;;;;;;21.53;21.95;101612.88;5031223;28;20049;-78
2023/06/03 09:47:08;;;;;;;2.55;1.20;;;;;;;21.59;21.94;101605.72;5037108;28;20108;-80
2023/06/03 09:49:38;;;;;;;3.47;1.15;;;;;;;21.71;22.39;101618.13;5041284;28;20802;-79
2023/06/03 09:52:31;;;;;;;3.17;1.00;;;;;;;21.81;21.68;101613.16;5046530;28;20044;-79
2023/06/03 09:55:03;;;;;;;4.63;1.45;;;;;;;21.90;21.92;101616.72;5061016;28;20045;-79
2023/06/03 09:57:31;;;;;;;3.35;1.40;;;;;;;21.98;22.16;101601.84;5060088;28;20040;-78
2023/06/03 10:00:10;;;;;;;3.85;1.40;;;;;;;22.12;20.88;101617.72;5041296;28;20119;-82
2023/06/03 10:02:40;;;;;;;1.65;1.02;;;;;;;22.19;21.68;101604.72;5050396;28;20102;-81
2023/06/03 10:05:26;;;;;;;2.88;1.27;;;;;;;22.28;21.57;101601.66;5043881;28;20036;-79
2023/06/03 10:07:54;;;;;;;2.50;1.17;;;;;;;22.38;21.94;101601.34;5055068;28;20063;-78
2023/06/03 10:10:22;;;;;;;3.63;1.38;;;;;;;22.47;21.42;101602.09;5033922;28;20819;-78
2023/06/03 10:12:51;;;;;;;2.65;1.27;;;;;;;22.55;21.14;101599.25;5039556;28;20087;-78
2023/06/03 10:15:35;;;;;;;1.55;1.00;;;;;;;22.63;20.35;101593.53;5036670;28;20626;-78
2023/06/03 10:18:04;;;;;;;2.63;1.30;;;;;;;22.69;21.07;101606.69;5049680;28;20033;-78
2023/06/03 10:20:36;;;;;;;2.58;1.30;;;;;;;22.77;20.39;101601.00;5058209;28;20053;-78
2023/06/03 10:23:06;;;;;;;3.35;1.30;;;;;;;22.79;20.84;101598.03;5043845;28;20527;-79
2023/06/03 10:25:40;;;;;;;4.30;1.40;;;;;;;22.88;20.91;101596.84;5059436;28;20044;-78
2023/06/03 10:28:08;;;;;;;3.17;1.30;;;;;;;22.89;20.65;101605.03;5058671;28;20040;-77
2023/06/03 10:30:36;;;;;;;2.45;1.20;;;;;;;22.95;20.72;101598.63;5050554;28;20076;-78
2023/06/03 10:33:04;;;;;;;2.80;1.20;;;;;;;23.01;20.71;101613.72;5045529;28;20048;-78
2023/06/03 10:35:36;;;;;;;2.65;1.30;;;;;;;23.06;20.54;101602.84;5049824;28;20041;-76
2023/06/03 10:38:05;;;;;;;2.00;1.25;;;;;;;23.07;20.61;101601.78;5049104;28;20041;-78
2023/06/03 10:40:35;;;;;;;2.67;1.10;;;;;;;23.14;20.47;101608.28;5056580;28;20139;-77
2023/06/03 10:43:03;;;;;;;2.85;1.25;;;;;;;23.15;20.50;101593.28;5054615;28;20558;-77
2023/06/03 10:45:32;;;;;;;1.77;1.20;;;;;;;23.19;20.33;101594.63;5037916;28;20037;-79
2023/06/03 10:48:03;;;;;;;2.63;1.38;;;;;;;23.24;19.95;101597.69;5056771;28;20049;-78
2023/06/03 10:50:54;;;;;;;2.85;1.20;;;;;;;23.28;19.80;101595.34;5043264;28;20067;-79
2023/06/03 10:53:35;;;;;;;2.55;1.20;;;;;;;23.31;20.03;101594.97;5057902;28;20060;-78
2023/06/03 10:56:08;;;;;;;2.25;1.30;;;;;;;23.33;20.22;101606.81;5053766;28;20060;-81
2023/06/03 10:58:41;;;;;;;2.60;1.27;;;;;;;23.36;19.88;101604.44;5044002;28;20036;-78
2023/06/03 11:01:09;;;;;;;3.13;1.38;;;;;;;23.37;20.21;101597.81;5043669;28;20056;-79
2023/06/03 11:04:15;;;;;;;2.45;1.17;;;;;;;23.39;19.97;101603.19;5061088;28;20045;-78
2023/06/03 11:06:45;;;;;;;3.78;1.30;;;;;;;23.43;19.94;101598.91;5049893;28;20799;-77
2023/06/03 11:09:16;;;;;;;4.47;1.30;;;;;;;23.46;20.06;101595.72;5039933;28;20067;-77
2023/06/03 11:11:58;;;;;;;2.40;1.45;;;;;;;23.51;20.05;101603.50;5058041;28;20424;-77
2023/06/03 11:14:55;;;;;;;2.42;1.30;;;;;;;23.50;20.56;101591.44;5059969;28;20045;-76
2023/06/03 11:17:24;;;;;;;6.30;1.90;;;;;;;23.58;20.86;101596.91;5059935;28;20052;-78
2023/06/03 11:19:54;;;;;;;2.90;1.40;;;;;;;23.66;20.58;101595.91;5046242;28;20518;-79
2023/06/03 11:22:42;;;;;;;7.78;1.80;;;;;;;23.71;21.30;101597.00;5041877;28;20049;-83
2023/06/03 11:25:31;;;;;;;131.82;99.18;;;;;;;23.81;21.30;101593.03;5037201;28;20045;-81
2023/06/03 11:28:35;;;;;;;440.13;393.17;;;;;;;23.86;21.51;101602.53;5059733;28;20036;-77
2023/06/03 11:31:05;;;;;;;390.02;350.75;;;;;;;24.03;21.49;101595.56;5049941;28;20108;-78
2023/06/03 11:33:34;;;;;;;468.77;423.45;;;;;;;24.15;21.45;101595.84;5048153;28;20049;-78
2023/06/03 11:36:54;;;;;;;718.40;650.05;;;;;;;24.28;20.94;101600.63;5062077;28;20084;-81
2023/06/03 11:39:24;;;;;;;747.97;677.63;;;;;;;24.38;20.73;101599.22;5053184;28;20049;-82
2023/06/03 11:42:12;;;;;;;343.92;314.90;;;;;;;24.50;19.93;101585.47;5063594;28;20111;-80